createdAt,value
2018-09-18T00:02:13.647Z,99.90
2018-09-18T00:04:43.120Z,99.90
2018-09-18T00:07:12.518Z,99.90
2018-09-18T00:09:41.899Z,99.90
2018-09-18T00:12:11.301Z,99.90
2018-09-18T00:14:40.665Z,99.90
2018-09-18T00:17:10.041Z,99.90
2018-09-18T00:19:39.461Z,99.90
2018-09-18T00:22:08.884Z,99.90
2018-09-18T00:24:38.318Z,99.90
2018-09-18T00:27:07.713Z,99.90
2018-09-18T00:29:37.074Z,99.90
2018-09-18T00:32:06.570Z,99.90
2018-09-18T00:34:35.996Z,99.90
2018-09-18T00:37:05.439Z,99.90
2018-09-18T00:39:34.795Z,99.90
2018-09-18T00:42:04.178Z,99.90
2018-09-18T00:44:33.644Z,99.90
2018-09-18T00:47:03.040Z,99.90
2018-09-18T00:49:32.462Z,99.90
2018-09-18T00:52:01.892Z,99.90
2018-09-18T00:54:31.299Z,99.90
2018-09-18T00:57:00.885Z,99.90
2018-09-18T00:59:30.256Z,99.90
2018-09-18T01:01:59.679Z,99.90
2018-09-18T01:04:29.094Z,99.90
2018-09-18T01:06:58.548Z,99.90
2018-09-18T01:09:27.939Z,99.90
2018-09-18T01:11:57.389Z,99.90
2018-09-18T01:14:26.784Z,99.90
2018-09-18T01:16:56.157Z,99.90
2018-09-18T01:19:25.546Z,99.90
2018-09-18T01:21:54.985Z,99.90
2018-09-18T01:24:24.400Z,99.90
2018-09-18T01:26:53.793Z,99.90
2018-09-18T01:29:23.200Z,99.90
2018-09-18T01:31:52.613Z,99.90
2018-09-18T01:34:21.968Z,99.90
2018-09-18T01:36:51.369Z,99.90
2018-09-18T01:39:20.795Z,99.90
2018-09-18T01:41:50.223Z,99.90
2018-09-18T01:44:19.701Z,99.90
2018-09-18T01:46:49.115Z,99.90
2018-09-18T01:49:18.548Z,99.90
2018-09-18T01:51:47.976Z,99.90
2018-09-18T01:54:17.368Z,99.90
2018-09-18T01:56:46.853Z,99.90
2018-09-18T01:59:16.385Z,99.90
2018-09-18T02:01:45.791Z,99.90
2018-09-18T02:04:15.215Z,99.90
2018-09-18T02:06:44.627Z,99.90
2018-09-18T02:09:14.051Z,99.90
2018-09-18T02:11:43.504Z,99.90
2018-09-18T02:14:12.920Z,99.90
2018-09-18T02:16:42.377Z,99.90
2018-09-18T02:19:11.816Z,99.90
2018-09-18T02:21:41.266Z,99.90
2018-09-18T02:24:10.632Z,99.90
2018-09-18T02:26:40.091Z,99.90
2018-09-18T02:29:09.479Z,99.90
2018-09-18T02:31:38.916Z,99.90
2018-09-18T02:34:08.319Z,99.90
2018-09-18T02:36:37.742Z,99.90
2018-09-18T02:39:10.089Z,99.90
2018-09-18T02:41:39.502Z,99.90
2018-09-18T02:44:08.976Z,99.90
2018-09-18T02:46:38.471Z,99.90
2018-09-18T02:49:08.015Z,99.90
2018-09-18T02:51:37.391Z,99.90
2018-09-18T02:54:06.964Z,99.90
2018-09-18T02:56:36.397Z,99.90
2018-09-18T02:59:05.804Z,99.90
2018-09-18T03:01:35.215Z,99.90
2018-09-18T03:04:04.641Z,99.90
2018-09-18T03:06:34.110Z,99.90
2018-09-18T03:09:04.305Z,99.90
2018-09-18T03:11:33.733Z,99.90
2018-09-18T03:14:03.147Z,99.90
2018-09-18T03:16:32.555Z,99.90
2018-09-18T03:19:01.983Z,99.90
2018-09-18T03:21:31.400Z,99.90
2018-09-18T03:24:00.784Z,99.90
2018-09-18T03:26:30.214Z,99.90
2018-09-18T03:28:59.593Z,99.90
2018-09-18T03:31:29.024Z,99.90
2018-09-18T03:33:58.481Z,99.90
2018-09-18T03:36:27.968Z,99.90
2018-09-18T03:38:57.384Z,99.90
2018-09-18T03:41:26.793Z,99.90
2018-09-18T03:43:56.182Z,99.90
2018-09-18T03:46:25.581Z,99.90
2018-09-18T03:48:55.002Z,99.90
2018-09-18T03:51:24.467Z,99.90
2018-09-18T03:53:53.921Z,99.90
2018-09-18T03:56:23.331Z,99.90
2018-09-18T03:58:52.743Z,99.90
2018-09-18T04:01:22.192Z,99.90
2018-09-18T04:03:51.604Z,99.90
2018-09-18T04:06:21.073Z,99.90
2018-09-18T04:08:50.464Z,99.90
2018-09-18T04:11:19.966Z,99.90
2018-09-18T04:13:49.328Z,99.90
2018-09-18T04:16:18.776Z,99.90
2018-09-18T04:18:48.243Z,99.90
2018-09-18T04:21:17.682Z,99.90
2018-09-18T04:23:47.109Z,99.90
2018-09-18T04:26:16.505Z,99.90
2018-09-18T04:28:45.975Z,99.90
2018-09-18T04:31:15.406Z,99.90
2018-09-18T04:33:44.835Z,99.90
2018-09-18T04:36:14.258Z,99.90
2018-09-18T04:38:43.703Z,99.90
2018-09-18T04:41:13.136Z,99.90
2018-09-18T04:43:42.540Z,99.90
2018-09-18T04:46:12.005Z,99.90
2018-09-18T04:48:41.433Z,99.90
2018-09-18T04:51:11.142Z,99.90
2018-09-18T04:53:40.612Z,99.90
2018-09-18T04:56:10.299Z,99.90
2018-09-18T04:58:39.697Z,99.90
2018-09-18T05:01:09.112Z,99.90
2018-09-18T05:03:38.526Z,99.90
2018-09-18T05:06:07.969Z,99.90
2018-09-18T05:08:37.430Z,99.90
2018-09-18T05:11:06.855Z,99.90
2018-09-18T05:13:36.282Z,99.90
2018-09-18T05:16:05.748Z,99.90
2018-09-18T05:18:35.208Z,99.90
2018-09-18T05:21:04.624Z,99.90
2018-09-18T05:23:34.041Z,99.90
2018-09-18T05:26:03.500Z,99.90
2018-09-18T05:28:32.937Z,99.90
2018-09-18T05:31:02.359Z,99.90
2018-09-18T05:33:31.809Z,99.90
2018-09-18T05:36:01.197Z,99.90
2018-09-18T05:38:30.638Z,99.90
2018-09-18T05:41:00.076Z,99.90
2018-09-18T05:43:29.825Z,99.90
2018-09-18T05:45:59.284Z,99.90
2018-09-18T05:48:33.239Z,99.90
2018-09-18T05:51:02.864Z,99.90
2018-09-18T05:53:32.257Z,99.90
2018-09-18T05:56:01.688Z,99.90
2018-09-18T05:58:31.100Z,99.90
2018-09-18T06:01:00.530Z,99.90
2018-09-18T06:03:29.958Z,99.90
2018-09-18T06:05:59.395Z,99.90
2018-09-18T06:08:28.792Z,99.90
2018-09-18T06:10:58.204Z,99.90
2018-09-18T06:13:27.631Z,99.90
2018-09-18T06:15:57.037Z,99.90
2018-09-18T06:18:26.460Z,99.90
2018-09-18T06:20:55.905Z,99.90
2018-09-18T06:23:25.356Z,99.90
2018-09-18T06:25:54.773Z,99.90
2018-09-18T06:28:24.157Z,99.90
2018-09-18T06:30:53.606Z,99.90
2018-09-18T06:33:23.056Z,99.90
2018-09-18T06:35:52.576Z,99.90
2018-09-18T06:38:21.961Z,99.90
2018-09-18T06:40:51.452Z,99.90
2018-09-18T06:43:20.855Z,99.90
2018-09-18T06:45:50.532Z,99.90
2018-09-18T06:48:20.383Z,99.90
2018-09-18T06:50:49.861Z,99.90
2018-09-18T06:53:19.306Z,99.90
2018-09-18T06:55:48.750Z,99.90
2018-09-18T06:58:18.141Z,99.90
2018-09-18T07:00:47.673Z,99.90
2018-09-18T07:03:17.056Z,99.90
2018-09-18T07:05:46.540Z,99.90
2018-09-18T07:08:16.043Z,99.90
2018-09-18T07:10:45.484Z,99.90
2018-09-18T07:13:14.998Z,99.90
2018-09-18T07:15:44.415Z,99.90
2018-09-18T07:18:13.889Z,99.90
2018-09-18T07:20:43.328Z,99.50
2018-09-18T07:23:12.800Z,99.60
2018-09-18T07:25:42.904Z,99.70
2018-09-18T07:28:13.507Z,98.80
2018-09-18T07:30:43.134Z,97.60
2018-09-18T07:33:12.577Z,99.00
2018-09-18T07:35:42.226Z,98.00
2018-09-18T07:38:11.691Z,98.50
2018-09-18T07:40:41.465Z,97.60
2018-09-18T07:43:10.977Z,98.00
2018-09-18T07:45:40.412Z,96.60
2018-09-18T07:48:09.813Z,96.90
2018-09-18T07:50:39.518Z,96.00
2018-09-18T07:53:08.962Z,96.80
2018-09-18T07:55:38.682Z,96.00
2018-09-18T07:58:08.135Z,95.90
2018-09-18T08:00:37.612Z,95.10
2018-09-18T08:03:07.129Z,95.10
2018-09-18T08:05:36.606Z,94.90
2018-09-18T08:08:06.511Z,94.30
2018-09-18T08:10:36.032Z,94.40
2018-09-18T08:13:05.777Z,95.70
2018-09-18T08:15:35.174Z,94.00
2018-09-18T08:18:04.831Z,94.20
2018-09-18T08:20:34.245Z,93.50
2018-09-18T08:23:04.109Z,92.90
2018-09-18T08:25:35.886Z,93.50
2018-09-18T08:28:05.817Z,93.20
2018-09-18T08:30:41.871Z,92.40
2018-09-18T08:33:11.309Z,92.20
2018-09-18T08:35:40.788Z,91.90
2018-09-18T08:38:10.187Z,91.70
2018-09-18T08:40:39.635Z,92.10
2018-09-18T08:43:09.071Z,91.60
2018-09-18T08:45:38.540Z,92.30
2018-09-18T08:48:07.967Z,91.20
2018-09-18T08:50:39.021Z,92.10
2018-09-18T08:53:08.491Z,90.50
2018-09-18T08:55:37.976Z,90.30
2018-09-18T08:58:07.414Z,90.20
2018-09-18T09:00:37.204Z,89.30
2018-09-18T09:03:06.623Z,89.00
2018-09-18T09:05:36.003Z,88.70
2018-09-18T09:08:05.546Z,89.00
2018-09-18T09:10:34.954Z,89.00
2018-09-18T09:13:04.812Z,87.80
2018-09-18T09:15:34.416Z,87.30
2018-09-18T09:18:04.240Z,86.90
2018-09-18T09:20:33.612Z,86.40
2018-09-18T09:23:03.040Z,86.90
2018-09-18T09:25:32.534Z,86.00
2018-09-18T09:28:01.988Z,84.80
2018-09-18T09:30:31.380Z,85.10
2018-09-18T09:33:00.836Z,84.90
2018-09-18T09:35:30.266Z,84.40
2018-09-18T09:37:59.637Z,83.40
2018-09-18T09:40:29.079Z,83.60
2018-09-18T09:42:58.592Z,83.00
2018-09-18T09:45:28.024Z,83.30
2018-09-18T09:47:57.478Z,82.70
2018-09-18T09:50:26.965Z,83.50
2018-09-18T09:52:56.388Z,82.40
2018-09-18T09:55:25.830Z,82.00
2018-09-18T09:57:55.289Z,82.80
2018-09-18T10:00:29.976Z,81.90
2018-09-18T10:02:59.412Z,81.30
2018-09-18T10:05:28.778Z,81.00
2018-09-18T10:07:58.194Z,82.30
2018-09-18T10:10:27.686Z,79.80
2018-09-18T10:12:57.048Z,79.30
2018-09-18T10:15:26.552Z,78.60
2018-09-18T10:17:56.496Z,78.30
2018-09-18T10:20:31.044Z,78.90
2018-09-18T10:23:00.433Z,78.60
2018-09-18T10:25:33.920Z,78.60
2018-09-18T10:28:03.445Z,77.70
2018-09-18T10:30:32.940Z,77.30
2018-09-18T10:33:02.378Z,78.00
2018-09-18T10:35:31.856Z,77.40
2018-09-18T10:38:01.308Z,77.60
2018-09-18T10:40:30.729Z,77.80
2018-09-18T10:43:00.279Z,76.30
2018-09-18T10:45:29.770Z,76.50
2018-09-18T10:48:02.534Z,74.80
2018-09-18T10:50:32.066Z,74.50
2018-09-18T10:53:01.554Z,73.50
2018-09-18T10:55:30.973Z,72.40
2018-09-18T10:58:00.827Z,71.50
2018-09-18T11:00:30.232Z,71.50
2018-09-18T11:02:59.747Z,72.10
2018-09-18T11:05:29.178Z,73.50
2018-09-18T11:07:58.634Z,72.00
2018-09-18T11:10:28.123Z,71.80
2018-09-18T11:12:57.550Z,73.20
2018-09-18T11:15:27.749Z,71.40
2018-09-18T11:17:57.211Z,72.50
2018-09-18T11:20:26.581Z,71.00
2018-09-18T11:22:56.010Z,71.20
2018-09-18T11:25:25.426Z,71.70
2018-09-18T11:27:54.863Z,73.00
2018-09-18T11:30:24.397Z,71.40
2018-09-18T11:32:53.858Z,70.90
2018-09-18T11:35:23.249Z,70.90
2018-09-18T11:37:52.633Z,71.70
2018-09-18T11:40:22.083Z,71.10
2018-09-18T11:42:51.787Z,71.50
2018-09-18T11:45:21.237Z,70.60
2018-09-18T11:47:50.737Z,70.60
2018-09-18T11:50:20.143Z,71.90
2018-09-18T11:52:49.634Z,70.60
2018-09-18T11:55:19.200Z,70.50
2018-09-18T11:57:48.813Z,70.60
2018-09-18T12:00:18.403Z,71.00
2018-09-18T12:02:50.844Z,69.80
2018-09-18T12:05:21.544Z,70.70
2018-09-18T12:07:50.997Z,69.40
2018-09-18T12:10:20.437Z,69.20
2018-09-18T12:12:52.179Z,69.90
2018-09-18T12:15:29.847Z,69.00
2018-09-18T12:17:59.305Z,67.50
2018-09-18T12:20:28.851Z,67.90
2018-09-18T12:22:58.242Z,68.60
2018-09-18T12:25:27.692Z,68.20
2018-09-18T12:27:57.108Z,67.70
2018-09-18T12:30:26.687Z,67.60
2018-09-18T12:32:56.149Z,67.00
2018-09-18T12:35:25.602Z,67.40
2018-09-18T12:37:55.002Z,66.10
2018-09-18T12:40:24.478Z,66.40
2018-09-18T12:42:53.853Z,67.70
2018-09-18T12:45:23.309Z,65.50
2018-09-18T12:47:52.760Z,65.60
2018-09-18T12:50:22.425Z,65.10
2018-09-18T12:52:51.716Z,64.40
2018-09-18T12:55:21.147Z,64.20
2018-09-18T12:57:50.692Z,64.10
2018-09-18T13:00:20.210Z,63.80
2018-09-18T13:02:49.644Z,63.80
2018-09-18T13:05:19.138Z,63.50
2018-09-18T13:07:48.590Z,63.80
2018-09-18T13:10:18.010Z,63.70
2018-09-18T13:12:47.450Z,63.90
2018-09-18T13:15:16.911Z,63.10
2018-09-18T13:17:46.324Z,63.10
2018-09-18T13:20:15.808Z,62.90
2018-09-18T13:22:45.197Z,62.90
2018-09-18T13:25:19.579Z,64.10
2018-09-18T13:27:49.122Z,64.50
2018-09-18T13:30:18.580Z,65.20
2018-09-18T13:32:48.044Z,64.50
2018-09-18T13:35:17.482Z,65.40
2018-09-18T13:37:46.880Z,65.50
2018-09-18T13:40:16.316Z,66.00
2018-09-18T13:42:46.076Z,66.00
2018-09-18T13:45:15.498Z,66.30
2018-09-18T13:47:44.949Z,67.50
2018-09-18T13:50:14.465Z,67.80
2018-09-18T13:52:43.862Z,67.80
2018-09-18T13:55:13.325Z,68.40
2018-09-18T13:57:42.824Z,68.90
2018-09-18T14:00:12.337Z,68.60
2018-09-18T14:02:41.810Z,68.20
2018-09-18T14:05:11.486Z,68.80
2018-09-18T14:07:40.882Z,67.40
2018-09-18T14:10:12.676Z,66.60
2018-09-18T14:12:42.078Z,66.10
2018-09-18T14:15:11.700Z,65.50
2018-09-18T14:17:41.075Z,65.40
2018-09-18T14:20:10.543Z,65.00
2018-09-18T14:22:39.970Z,66.50
2018-09-18T14:25:09.328Z,64.90
2018-09-18T14:27:38.757Z,65.30
2018-09-18T14:30:08.245Z,65.90
2018-09-18T14:32:37.686Z,67.10
2018-09-18T14:35:07.205Z,64.50
2018-09-18T14:37:36.601Z,64.50
2018-09-18T14:40:06.075Z,64.30
2018-09-18T14:42:35.541Z,65.00
2018-09-18T14:45:05.148Z,64.90
2018-09-18T14:47:34.611Z,64.40
2018-09-18T14:50:04.105Z,64.20
2018-09-18T14:52:33.533Z,64.30
2018-09-18T14:55:02.935Z,65.60
2018-09-18T14:57:32.674Z,65.10
2018-09-18T15:00:02.280Z,64.80
2018-09-18T15:02:34.483Z,63.80
2018-09-18T15:05:06.249Z,63.40
2018-09-18T15:07:35.899Z,63.60
2018-09-18T15:10:05.401Z,62.50
2018-09-18T15:12:34.817Z,60.80
2018-09-18T15:15:04.333Z,61.60
2018-09-18T15:17:33.708Z,61.50
2018-09-18T15:20:03.198Z,62.30
2018-09-18T15:22:32.627Z,61.90
2018-09-18T15:25:02.067Z,61.40
2018-09-18T15:27:32.258Z,61.60
2018-09-18T15:30:01.653Z,62.50
2018-09-18T15:32:31.088Z,61.80
2018-09-18T15:35:00.523Z,62.20
2018-09-18T15:37:30.011Z,62.70
2018-09-18T15:39:59.446Z,62.60
2018-09-18T15:42:28.997Z,63.30
2018-09-18T15:44:58.434Z,63.30
2018-09-18T15:47:27.917Z,62.60
2018-09-18T15:49:57.342Z,62.20
2018-09-18T15:52:26.735Z,62.30
2018-09-18T15:54:56.149Z,62.20
2018-09-18T15:57:25.602Z,62.30
2018-09-18T15:59:55.450Z,62.30
2018-09-18T16:02:24.865Z,63.10
2018-09-18T16:04:54.385Z,63.20
2018-09-18T16:07:23.972Z,63.20
2018-09-18T16:09:53.524Z,63.70
2018-09-18T16:12:22.891Z,64.80
2018-09-18T16:14:52.657Z,64.30
2018-09-18T16:17:22.453Z,64.30
2018-09-18T16:19:51.891Z,64.50
2018-09-18T16:22:21.516Z,64.40
2018-09-18T16:24:54.005Z,65.20
2018-09-18T16:27:23.394Z,65.60
2018-09-18T16:29:52.853Z,65.80
2018-09-18T16:32:22.264Z,65.90
2018-09-18T16:34:51.772Z,65.70
2018-09-18T16:37:21.261Z,66.60
2018-09-18T16:39:50.701Z,66.10
2018-09-18T16:42:20.185Z,66.90
2018-09-18T16:44:49.615Z,67.00
2018-09-18T16:47:19.112Z,67.10
2018-09-18T16:49:48.502Z,67.40
2018-09-18T16:52:18.022Z,68.20
2018-09-18T16:54:47.833Z,68.10
2018-09-18T16:57:17.439Z,68.20
2018-09-18T16:59:49.451Z,69.60
2018-09-18T17:02:19.001Z,69.50
2018-09-18T17:04:48.401Z,69.40
2018-09-18T17:07:17.795Z,68.80
2018-09-18T17:09:47.212Z,68.20
2018-09-18T17:12:16.611Z,67.80
2018-09-18T17:14:46.210Z,68.70
2018-09-18T17:17:15.600Z,68.50
2018-09-18T17:19:45.164Z,68.20
2018-09-18T17:22:16.106Z,68.30
2018-09-18T17:24:45.821Z,68.50
2018-09-18T17:27:15.775Z,68.10
2018-09-18T17:29:46.089Z,68.00
2018-09-18T17:32:15.625Z,69.00
2018-09-18T17:34:45.120Z,69.20
2018-09-18T17:37:14.594Z,70.00
2018-09-18T17:39:44.037Z,70.20
2018-09-18T17:42:13.461Z,71.60
2018-09-18T17:44:42.903Z,72.20
2018-09-18T17:47:14.030Z,72.70
2018-09-18T17:49:43.535Z,71.80
2018-09-18T17:52:12.990Z,72.60
2018-09-18T17:54:42.436Z,72.70
2018-09-18T17:57:13.738Z,73.20
2018-09-18T17:59:43.247Z,72.90
2018-09-18T18:02:12.873Z,73.30
2018-09-18T18:04:42.289Z,73.60
2018-09-18T18:07:12.024Z,74.10
2018-09-18T18:09:41.777Z,74.50
2018-09-18T18:12:11.235Z,73.90
2018-09-18T18:14:40.667Z,74.80
2018-09-18T18:17:10.086Z,74.70
2018-09-18T18:19:39.483Z,75.90
2018-09-18T18:22:08.971Z,77.00
2018-09-18T18:24:38.449Z,76.20
2018-09-18T18:27:07.906Z,76.50
2018-09-18T18:29:37.465Z,76.50
2018-09-18T18:32:06.924Z,77.10
2018-09-18T18:34:36.409Z,77.10
2018-09-18T18:37:06.034Z,77.60
2018-09-18T18:39:35.524Z,77.20
2018-09-18T18:42:05.007Z,77.50
2018-09-18T18:44:34.497Z,79.10
2018-09-18T18:47:03.942Z,78.80
2018-09-18T18:49:36.653Z,78.70
2018-09-18T18:52:07.559Z,78.80
2018-09-18T18:54:37.349Z,79.30
2018-09-18T18:57:07.439Z,79.20
2018-09-18T18:59:37.037Z,79.10
2018-09-18T19:02:15.099Z,79.40
2018-09-18T19:04:48.160Z,79.70
2018-09-18T19:07:17.701Z,80.40
2018-09-18T19:09:47.107Z,80.30
2018-09-18T19:12:19.699Z,80.80
2018-09-18T19:14:49.208Z,81.80
2018-09-18T19:17:21.065Z,81.90
2018-09-18T19:19:50.542Z,81.50
2018-09-18T19:22:20.128Z,81.30
2018-09-18T19:24:56.685Z,81.10
2018-09-18T19:27:26.570Z,81.20
2018-09-18T19:29:56.028Z,81.80
2018-09-18T19:32:26.530Z,81.50
2018-09-18T19:34:56.457Z,81.80
2018-09-18T19:37:25.901Z,81.70
2018-09-18T19:39:55.368Z,81.70
2018-09-18T19:42:29.510Z,81.50
2018-09-18T19:44:58.982Z,81.80
2018-09-18T19:47:28.473Z,82.10
2018-09-18T19:49:57.943Z,82.40
2018-09-18T19:52:27.573Z,82.90
2018-09-18T19:54:57.114Z,83.20
2018-09-18T19:57:26.922Z,83.50
2018-09-18T19:59:56.396Z,83.80
2018-09-18T20:02:26.066Z,84.20
2018-09-18T20:04:55.471Z,83.50
2018-09-18T20:07:24.962Z,83.30
2018-09-18T20:10:02.013Z,83.20
2018-09-18T20:12:31.464Z,83.20
2018-09-18T20:15:01.008Z,83.70
2018-09-18T20:17:30.390Z,83.70
2018-09-18T20:19:59.907Z,83.80
2018-09-18T20:22:29.347Z,84.10
2018-09-18T20:24:58.739Z,84.80
2018-09-18T20:27:28.182Z,85.20
2018-09-18T20:29:57.620Z,86.00
2018-09-18T20:32:27.078Z,85.90
2018-09-18T20:34:56.869Z,85.60
2018-09-18T20:37:26.673Z,86.20
2018-09-18T20:39:56.117Z,87.10
2018-09-18T20:42:25.511Z,87.10
2018-09-18T20:44:59.666Z,86.80
2018-09-18T20:47:29.078Z,87.20
2018-09-18T20:49:58.493Z,87.50
2018-09-18T20:52:27.890Z,87.60
2018-09-18T20:54:59.354Z,87.50
2018-09-18T20:57:29.701Z,88.10
2018-09-18T20:59:59.252Z,88.40
2018-09-18T21:02:37.672Z,88.50
2018-09-18T21:05:07.127Z,88.80
2018-09-18T21:07:36.584Z,90.00
2018-09-18T21:10:13.853Z,90.10
2018-09-18T21:12:43.347Z,90.20
2018-09-18T21:15:12.821Z,90.40
2018-09-18T21:17:42.215Z,90.70
2018-09-18T21:20:11.756Z,90.90
2018-09-18T21:22:41.199Z,91.10
2018-09-18T21:25:14.899Z,91.20
2018-09-18T21:27:45.548Z,91.20
2018-09-18T21:30:16.276Z,91.20
2018-09-18T21:32:45.753Z,91.20
2018-09-18T21:35:15.177Z,91.60
2018-09-18T21:37:44.622Z,91.60
2018-09-18T21:40:14.044Z,91.80
2018-09-18T21:42:43.463Z,91.80
2018-09-18T21:45:12.888Z,92.10
2018-09-18T21:47:42.550Z,92.30
2018-09-18T21:50:12.055Z,92.60
2018-09-18T21:52:41.679Z,92.80
2018-09-18T21:55:11.186Z,93.30
2018-09-18T21:57:41.129Z,93.50
2018-09-18T22:00:11.596Z,93.50
2018-09-18T22:02:41.613Z,93.70
2018-09-18T22:05:11.845Z,93.80
2018-09-18T22:07:41.430Z,94.40
2018-09-18T22:10:10.830Z,94.60
2018-09-18T22:12:40.290Z,95.20
2018-09-18T22:15:09.673Z,95.20
2018-09-18T22:17:39.105Z,96.10
2018-09-18T22:20:09.379Z,96.50
2018-09-18T22:22:39.744Z,96.90
2018-09-18T22:25:09.142Z,97.50
2018-09-18T22:27:38.608Z,97.90
2018-09-18T22:30:09.153Z,98.10
2018-09-18T22:32:38.681Z,98.60
2018-09-18T22:35:08.096Z,98.90
2018-09-18T22:37:37.515Z,99.50
2018-09-18T22:40:07.112Z,99.60
2018-09-18T22:42:36.656Z,99.90
2018-09-18T22:45:06.156Z,99.90
2018-09-18T22:47:36.054Z,99.90
2018-09-18T22:50:05.687Z,99.90
2018-09-18T22:52:35.141Z,99.90
2018-09-18T22:55:04.633Z,99.90
2018-09-18T22:57:34.107Z,99.90
2018-09-18T23:00:03.539Z,99.90
2018-09-18T23:02:32.978Z,99.90
2018-09-18T23:05:02.428Z,99.90
2018-09-18T23:07:31.792Z,99.90
2018-09-18T23:10:01.246Z,99.90
2018-09-18T23:12:30.935Z,99.90
2018-09-18T23:15:00.360Z,99.90
2018-09-18T23:17:29.841Z,99.90
2018-09-18T23:19:59.284Z,99.90
2018-09-18T23:22:28.690Z,99.90
2018-09-18T23:24:58.107Z,99.90
2018-09-18T23:27:27.563Z,99.90
2018-09-18T23:29:56.989Z,99.90
2018-09-18T23:32:26.392Z,99.90
2018-09-18T23:34:55.792Z,99.90
2018-09-18T23:37:25.147Z,99.90
2018-09-18T23:39:54.578Z,99.90
2018-09-18T23:42:24.045Z,99.90
2018-09-18T23:44:53.775Z,99.90
2018-09-18T23:47:23.186Z,99.90
2018-09-18T23:49:52.580Z,99.90
2018-09-18T23:52:22.024Z,99.90
2018-09-18T23:54:51.444Z,99.90
2018-09-18T23:57:20.877Z,99.90
2018-09-18T23:59:50.341Z,99.90
